CPA603 VHHH-VNKT
Flight info
| Callsign | CPA603 |
|---|---|
| Flight time | N/A |
| Altitude | 38000 |
| Route | PECAN V10 SIKOU/K0913S1160 A202 ASSAD/K0913F380 A206 NALAO/N0494F380 A206 LPB B465 AKSAG/N0488F400 B465 CTG G463 ROMEO ROMEO3R |
| Aircraft | A359/H-SDE2E3GHIJ3J4J5LM1ORWXYZ/LB1D1 |
Departure
| Time | 2026-05-06 21:36 |
|---|---|
| Airport | Hong Kong International Airport (VHHH) |
Arrival
| Time | N/A |
|---|---|
| Airport | Tribhuvan International Airport (VNKT) |
| Time | Latitude | Longitude | Altitude | Speed | Heading |
|---|---|---|---|---|---|
| 2026-05-06 21:04 | 22.31470 | 113.92552 | 42 ft | 0 kts | 206° |
| 2026-05-06 21:23 | 22.31484 | 113.92560 | 39 ft | 4 kts | 206° |
| 2026-05-06 21:24 | 22.31509 | 113.92572 | 39 ft | 4 kts | 206° |
| 2026-05-06 21:24 | 22.31529 | 113.92583 | 39 ft | 2 kts | 206° |
| 2026-05-06 21:24 | 22.31550 | 113.92598 | 38 ft | 4 kts | 241° |
| 2026-05-06 21:24 | 22.31554 | 113.92624 | 36 ft | 4 kts | 289° |
| 2026-05-06 21:25 | 22.31544 | 113.92648 | 39 ft | 2 kts | 295° |
| 2026-05-06 21:25 | 22.31543 | 113.92650 | 39 ft | 1 kts | 295° |
| 2026-05-06 21:27 | 22.31544 | 113.92649 | 39 ft | 2 kts | 296° |
| 2026-05-06 21:27 | 22.31568 | 113.92593 | 41 ft | 12 kts | 296° |
| 2026-05-06 21:27 | 22.31606 | 113.92509 | 40 ft | 12 kts | 295° |
| 2026-05-06 21:27 | 22.31645 | 113.92413 | 41 ft | 15 kts | 282° |
| 2026-05-06 21:28 | 22.31620 | 113.92286 | 41 ft | 23 kts | 252° |
| 2026-05-06 21:28 | 22.31558 | 113.92092 | 41 ft | 29 kts | 251° |
| 2026-05-06 21:28 | 22.31500 | 113.91910 | 42 ft | 26 kts | 251° |
| 2026-05-06 21:28 | 22.31441 | 113.91727 | 42 ft | 26 kts | 250° |
| 2026-05-06 21:29 | 22.31379 | 113.91542 | 42 ft | 26 kts | 250° |
| 2026-05-06 21:29 | 22.31318 | 113.91355 | 42 ft | 27 kts | 251° |
| 2026-05-06 21:29 | 22.31257 | 113.91163 | 42 ft | 27 kts | 251° |
| 2026-05-06 21:29 | 22.31193 | 113.90968 | 42 ft | 28 kts | 250° |
| 2026-05-06 21:30 | 22.31130 | 113.90771 | 42 ft | 28 kts | 251° |
| 2026-05-06 21:30 | 22.31071 | 113.90570 | 42 ft | 28 kts | 250° |
| 2026-05-06 21:30 | 22.31003 | 113.90375 | 42 ft | 28 kts | 249° |
| 2026-05-06 21:30 | 22.30937 | 113.90173 | 42 ft | 29 kts | 251° |
| 2026-05-06 21:31 | 22.30881 | 113.89999 | 42 ft | 19 kts | 251° |
| 2026-05-06 21:31 | 22.30848 | 113.89896 | 42 ft | 12 kts | 254° |
| 2026-05-06 21:31 | 22.30885 | 113.89831 | 42 ft | 11 kts | 334° |
| 2026-05-06 21:31 | 22.30949 | 113.89806 | 42 ft | 4 kts | 340° |
| 2026-05-06 21:32 | 22.30950 | 113.89805 | 42 ft | 0 kts | 340° |
| 2026-05-06 21:34 | 22.30966 | 113.89799 | 42 ft | 9 kts | 340° |
| 2026-05-06 21:34 | 22.31035 | 113.89772 | 42 ft | 11 kts | 340° |
| 2026-05-06 21:34 | 22.31092 | 113.89799 | 42 ft | 10 kts | 63° |
| 2026-05-06 21:34 | 22.31118 | 113.89870 | 42 ft | 11 kts | 70° |
| 2026-05-06 21:35 | 22.31172 | 113.90037 | 42 ft | 51 kts | 71° |
| 2026-05-06 21:35 | 22.31360 | 113.90618 | 42 ft | 111 kts | 70° |
| 2026-05-06 21:35 | 22.31676 | 113.91588 | 42 ft | 161 kts | 71° |
| 2026-05-06 21:35 | 22.32081 | 113.92779 | 465 ft | 171 kts | 70° |
| 2026-05-06 21:36 | 22.32479 | 113.93995 | 1113 ft | 173 kts | 73° |
| 2026-05-06 21:36 | 22.32884 | 113.95295 | 1440 ft | 193 kts | 73° |
| 2026-05-06 21:36 | 22.33383 | 113.96723 | 1786 ft | 211 kts | 65° |
| 2026-05-06 21:36 | 22.34148 | 113.98103 | 2414 ft | 215 kts | 59° |
| 2026-05-06 21:37 | 22.34989 | 113.99443 | 2984 ft | 221 kts | 58° |
| 2026-05-06 21:37 | 22.35875 | 114.00839 | 3537 ft | 228 kts | 58° |
| 2026-05-06 21:37 | 22.36776 | 114.02261 | 4157 ft | 230 kts | 57° |
| 2026-05-06 21:37 | 22.37683 | 114.03697 | 4756 ft | 232 kts | 57° |
| 2026-05-06 21:38 | 22.38601 | 114.05152 | 5340 ft | 236 kts | 57° |
| 2026-05-06 21:38 | 22.39508 | 114.06618 | 5895 ft | 240 kts | 59° |
| 2026-05-06 21:38 | 22.40080 | 114.08305 | 6406 ft | 242 kts | 88° |
| 2026-05-06 21:38 | 22.39809 | 114.10123 | 6745 ft | 254 kts | 113° |
| 2026-05-06 21:39 | 22.39090 | 114.11952 | 6997 ft | 273 kts | 117° |
| 2026-05-06 21:39 | 22.38558 | 114.13203 | 7268 ft | 281 kts | 117° |
| 2026-05-06 21:39 | 22.37736 | 114.15154 | 7836 ft | 288 kts | 116° |
| 2026-05-06 21:39 | 22.36912 | 114.17149 | 8487 ft | 293 kts | 116° |
| 2026-05-06 21:40 | 22.36082 | 114.19182 | 9125 ft | 298 kts | 116° |
| 2026-05-06 21:40 | 22.34967 | 114.21933 | 9968 ft | 305 kts | 115° |
| 2026-05-06 21:40 | 22.34385 | 114.23369 | 10280 ft | 313 kts | 116° |
| 2026-05-06 21:40 | 22.33436 | 114.25520 | 10526 ft | 329 kts | 122° |
| 2026-05-06 21:41 | 22.31913 | 114.27411 | 10727 ft | 341 kts | 146° |
| 2026-05-06 21:41 | 22.29808 | 114.28687 | 10953 ft | 353 kts | 157° |
| 2026-05-06 21:41 | 22.27513 | 114.29801 | 11165 ft | 367 kts | 159° |
| 2026-05-06 21:41 | 22.25176 | 114.30928 | 11449 ft | 377 kts | 157° |
| 2026-05-06 21:42 | 22.22884 | 114.32366 | 11903 ft | 384 kts | 148° |
| 2026-05-06 21:42 | 22.20703 | 114.34046 | 12406 ft | 387 kts | 146° |
| 2026-05-06 21:42 | 22.18519 | 114.35778 | 12901 ft | 390 kts | 146° |
| 2026-05-06 21:42 | 22.16326 | 114.37518 | 13394 ft | 393 kts | 146° |
| 2026-05-06 21:43 | 22.14111 | 114.39272 | 13862 ft | 396 kts | 146° |
| 2026-05-06 21:43 | 22.11873 | 114.40970 | 14261 ft | 398 kts | 150° |
| 2026-05-06 21:43 | 22.09343 | 114.42148 | 14654 ft | 396 kts | 168° |
| 2026-05-06 21:43 | 22.06613 | 114.42379 | 15057 ft | 394 kts | 187° |
| 2026-05-06 21:44 | 22.03981 | 114.41635 | 15450 ft | 392 kts | 206° |
| 2026-05-06 21:44 | 22.01696 | 114.40032 | 15856 ft | 392 kts | 220° |
| 2026-05-06 21:44 | 21.99514 | 114.38239 | 16265 ft | 395 kts | 217° |
| 2026-05-06 21:44 | 21.97282 | 114.36558 | 16685 ft | 397 kts | 216° |
| 2026-05-06 21:45 | 21.94992 | 114.34864 | 17085 ft | 400 kts | 217° |
| 2026-05-06 21:45 | 21.92784 | 114.33023 | 17468 ft | 402 kts | 220° |
| 2026-05-06 21:45 | 21.90601 | 114.31103 | 17866 ft | 405 kts | 220° |
| 2026-05-06 21:45 | 21.88400 | 114.29181 | 18246 ft | 408 kts | 220° |
| 2026-05-06 21:46 | 21.86176 | 114.27259 | 18577 ft | 410 kts | 220° |
| 2026-05-06 21:46 | 21.83961 | 114.25357 | 18890 ft | 413 kts | 220° |
| 2026-05-06 21:46 | 21.81697 | 114.23422 | 19209 ft | 415 kts | 220° |
| 2026-05-06 21:46 | 21.79427 | 114.21486 | 19539 ft | 417 kts | 220° |
| 2026-05-06 21:47 | 21.77144 | 114.19542 | 19881 ft | 419 kts | 220° |
| 2026-05-06 21:47 | 21.74876 | 114.17613 | 20193 ft | 421 kts | 220° |
| 2026-05-06 21:47 | 21.72565 | 114.15649 | 20519 ft | 423 kts | 220° |
| 2026-05-06 21:47 | 21.70244 | 114.13677 | 20852 ft | 425 kts | 220° |
| 2026-05-06 21:48 | 21.67910 | 114.11696 | 21173 ft | 428 kts | 220° |
| 2026-05-06 21:48 | 21.65477 | 114.09817 | 21497 ft | 432 kts | 213° |
| 2026-05-06 21:48 | 21.62743 | 114.08441 | 21801 ft | 438 kts | 201° |
| 2026-05-06 21:48 | 21.59791 | 114.07556 | 22132 ft | 442 kts | 196° |
| 2026-05-06 21:49 | 21.56827 | 114.06795 | 22425 ft | 445 kts | 196° |
| 2026-05-06 21:49 | 21.53796 | 114.06027 | 22729 ft | 448 kts | 196° |
| 2026-05-06 21:49 | 21.50750 | 114.05251 | 23054 ft | 450 kts | 196° |
| 2026-05-06 21:49 | 21.47687 | 114.04464 | 23367 ft | 452 kts | 196° |
| 2026-05-06 21:50 | 21.44668 | 114.03501 | 23658 ft | 452 kts | 204° |
| 2026-05-06 21:50 | 21.41874 | 114.02055 | 23912 ft | 451 kts | 212° |
| 2026-05-06 21:50 | 21.39175 | 114.00314 | 24186 ft | 452 kts | 215° |
| 2026-05-06 21:50 | 21.36537 | 113.98470 | 24459 ft | 453 kts | 216° |
| 2026-05-06 21:51 | 21.33904 | 113.96567 | 24752 ft | 455 kts | 217° |
| 2026-05-06 21:51 | 21.31302 | 113.94673 | 25046 ft | 458 kts | 217° |
| 2026-05-06 21:51 | 21.28654 | 113.92756 | 25306 ft | 461 kts | 216° |
| 2026-05-06 21:51 | 21.25976 | 113.90835 | 25590 ft | 464 kts | 216° |
| 2026-05-06 21:52 | 21.23275 | 113.88912 | 25919 ft | 466 kts | 216° |
| 2026-05-06 21:52 | 21.20556 | 113.86988 | 26259 ft | 469 kts | 216° |
| 2026-05-06 21:52 | 21.17817 | 113.85056 | 26588 ft | 472 kts | 216° |
| 2026-05-06 21:52 | 21.15069 | 113.83119 | 26931 ft | 474 kts | 216° |
| 2026-05-06 21:53 | 21.12463 | 113.81019 | 27265 ft | 474 kts | 223° |
| 2026-05-06 21:53 | 21.10123 | 113.78531 | 27603 ft | 474 kts | 232° |
| 2026-05-06 21:53 | 21.08182 | 113.75687 | 27935 ft | 473 kts | 241° |
| 2026-05-06 21:53 | 21.06711 | 113.72542 | 28313 ft | 472 kts | 250° |
| 2026-05-06 21:54 | 21.05515 | 113.69254 | 28661 ft | 474 kts | 252° |
| 2026-05-06 21:54 | 21.04412 | 113.65918 | 28983 ft | 476 kts | 253° |
| 2026-05-06 21:54 | 21.03345 | 113.62543 | 29206 ft | 480 kts | 253° |
| 2026-05-06 21:54 | 21.02293 | 113.59176 | 29480 ft | 483 kts | 253° |
| 2026-05-06 21:55 | 21.01217 | 113.55757 | 29803 ft | 485 kts | 253° |
| 2026-05-06 21:55 | 21.00124 | 113.52324 | 30079 ft | 488 kts | 253° |
| 2026-05-06 21:55 | 20.99018 | 113.48885 | 30327 ft | 489 kts | 253° |
| 2026-05-06 21:55 | 20.97911 | 113.45468 | 30589 ft | 491 kts | 253° |
| 2026-05-06 21:56 | 20.96773 | 113.41970 | 30869 ft | 492 kts | 252° |
| 2026-05-06 21:56 | 20.95660 | 113.38555 | 31185 ft | 491 kts | 253° |
| 2026-05-06 21:56 | 20.94536 | 113.35116 | 31570 ft | 489 kts | 253° |
| 2026-05-06 21:56 | 20.93415 | 113.31683 | 31960 ft | 487 kts | 253° |
| 2026-05-06 21:57 | 20.92298 | 113.28267 | 32311 ft | 485 kts | 253° |
| 2026-05-06 21:57 | 20.91183 | 113.24857 | 32664 ft | 484 kts | 253° |
| 2026-05-06 21:57 | 20.90070 | 113.21452 | 32997 ft | 483 kts | 253° |
| 2026-05-06 21:57 | 20.88978 | 113.18113 | 33343 ft | 481 kts | 253° |
| 2026-05-06 21:58 | 20.87869 | 113.14727 | 33694 ft | 480 kts | 253° |
| 2026-05-06 21:58 | 20.86765 | 113.11357 | 34009 ft | 479 kts | 253° |
| 2026-05-06 21:58 | 20.85662 | 113.07994 | 34279 ft | 478 kts | 253° |
| 2026-05-06 21:58 | 20.84561 | 113.04636 | 34530 ft | 477 kts | 253° |
| 2026-05-06 21:59 | 20.83475 | 113.01329 | 34771 ft | 477 kts | 253° |
| 2026-05-06 21:59 | 20.82376 | 112.97982 | 34980 ft | 477 kts | 253° |
| 2026-05-06 21:59 | 20.81273 | 112.94629 | 35178 ft | 477 kts | 253° |
| 2026-05-06 21:59 | 20.80173 | 112.91286 | 35417 ft | 476 kts | 253° |
| 2026-05-06 22:00 | 20.79072 | 112.87944 | 35663 ft | 476 kts | 253° |
| 2026-05-06 22:00 | 20.77972 | 112.84606 | 35895 ft | 475 kts | 253° |
| 2026-05-06 22:00 | 20.76885 | 112.81311 | 36108 ft | 475 kts | 253° |
| 2026-05-06 22:00 | 20.75787 | 112.77983 | 36320 ft | 474 kts | 253° |
| 2026-05-06 22:01 | 20.74749 | 112.74635 | 36545 ft | 472 kts | 257° |
| 2026-05-06 22:01 | 20.74058 | 112.71227 | 36728 ft | 469 kts | 264° |
| 2026-05-06 22:01 | 20.73810 | 112.67757 | 36922 ft | 466 kts | 272° |
| 2026-05-06 22:01 | 20.73903 | 112.64331 | 37119 ft | 465 kts | 275° |
| 2026-05-06 22:02 | 20.74153 | 112.60890 | 37321 ft | 464 kts | 277° |
| 2026-05-06 22:02 | 20.74485 | 112.57451 | 37505 ft | 463 kts | 277° |
| 2026-05-06 22:02 | 20.74845 | 112.54025 | 37696 ft | 463 kts | 278° |
| 2026-05-06 22:02 | 20.75203 | 112.50610 | 37882 ft | 462 kts | 277° |
| 2026-05-06 22:03 | 20.75891 | 112.43740 | 37911 ft | 466 kts | 277° |
| 2026-05-06 22:03 | 20.76536 | 112.36883 | 37912 ft | 466 kts | 277° |
| 2026-05-06 22:04 | 20.77171 | 112.29974 | 37911 ft | 466 kts | 277° |
| 2026-05-06 22:04 | 20.77802 | 112.23069 | 37912 ft | 466 kts | 277° |
| 2026-05-06 22:05 | 20.78428 | 112.16208 | 37914 ft | 466 kts | 277° |
| 2026-05-06 22:05 | 20.79057 | 112.09297 | 37915 ft | 467 kts | 277° |
| 2026-05-06 22:06 | 20.79680 | 112.02422 | 37911 ft | 467 kts | 277° |
| 2026-05-06 22:06 | 20.80303 | 111.95511 | 37911 ft | 467 kts | 277° |
| 2026-05-06 22:07 | 20.80926 | 111.88573 | 37915 ft | 467 kts | 277° |
| 2026-05-06 22:07 | 20.81544 | 111.81655 | 37914 ft | 467 kts | 277° |
| 2026-05-06 22:08 | 20.82160 | 111.74733 | 37912 ft | 468 kts | 277° |
| 2026-05-06 22:08 | 20.82771 | 111.67830 | 37913 ft | 468 kts | 277° |
| 2026-05-06 22:09 | 20.83383 | 111.60893 | 37910 ft | 468 kts | 277° |
| 2026-05-06 22:09 | 20.83928 | 111.53945 | 37915 ft | 469 kts | 273° |
| 2026-05-06 22:10 | 20.83226 | 111.47042 | 37912 ft | 474 kts | 259° |
| 2026-05-06 22:10 | 20.81272 | 111.40285 | 37911 ft | 476 kts | 253° |
| 2026-05-06 22:11 | 20.78956 | 111.33630 | 37909 ft | 477 kts | 252° |
| 2026-05-06 22:11 | 20.76652 | 111.27028 | 37909 ft | 477 kts | 253° |
| 2026-05-06 22:12 | 20.74379 | 111.20357 | 37912 ft | 477 kts | 253° |
| 2026-05-06 22:12 | 20.72130 | 111.13683 | 37909 ft | 477 kts | 253° |
| 2026-05-06 22:13 | 20.69894 | 111.07043 | 37910 ft | 477 kts | 253° |
| 2026-05-06 22:13 | 20.67654 | 111.00405 | 37902 ft | 477 kts | 253° |
| 2026-05-06 22:14 | 20.65399 | 110.93741 | 37905 ft | 477 kts | 253° |
| 2026-05-06 22:14 | 20.63140 | 110.87070 | 37906 ft | 476 kts | 253° |
| 2026-05-06 22:15 | 20.60905 | 110.80406 | 37905 ft | 476 kts | 253° |
| 2026-05-06 22:15 | 20.58685 | 110.73779 | 37905 ft | 477 kts | 253° |
| 2026-05-06 22:16 | 20.56443 | 110.67112 | 37905 ft | 477 kts | 253° |
| 2026-05-06 22:16 | 20.54196 | 110.60447 | 37908 ft | 477 kts | 253° |
| 2026-05-06 22:17 | 20.51959 | 110.53828 | 37905 ft | 478 kts | 252° |
| 2026-05-06 22:17 | 20.48861 | 110.47526 | 37908 ft | 483 kts | 236° |
| 2026-05-06 22:18 | 20.44736 | 110.41819 | 37906 ft | 485 kts | 233° |
| 2026-05-06 22:18 | 20.40470 | 110.36277 | 37903 ft | 486 kts | 233° |
| 2026-05-06 22:19 | 20.36157 | 110.30705 | 37901 ft | 485 kts | 233° |
| 2026-05-06 22:19 | 20.31891 | 110.25154 | 37900 ft | 485 kts | 233° |
| 2026-05-06 22:20 | 20.27621 | 110.19567 | 37901 ft | 485 kts | 234° |
| 2026-05-06 22:20 | 20.23416 | 110.13937 | 37899 ft | 485 kts | 234° |
| 2026-05-06 22:21 | 20.19235 | 110.08324 | 37901 ft | 485 kts | 234° |
| 2026-05-06 22:21 | 20.15016 | 110.02688 | 37898 ft | 485 kts | 234° |
| 2026-05-06 22:22 | 20.10826 | 109.97111 | 37894 ft | 485 kts | 234° |
| 2026-05-06 22:22 | 20.06599 | 109.91492 | 37892 ft | 485 kts | 234° |
| 2026-05-06 22:23 | 20.02369 | 109.85875 | 37893 ft | 485 kts | 234° |
| 2026-05-06 22:23 | 19.98165 | 109.80296 | 37890 ft | 485 kts | 234° |
| 2026-05-06 22:24 | 19.93940 | 109.74695 | 37890 ft | 486 kts | 234° |
| 2026-05-06 22:24 | 19.89726 | 109.69113 | 37893 ft | 486 kts | 234° |
| 2026-05-06 22:25 | 19.85490 | 109.63508 | 37886 ft | 486 kts | 234° |
| 2026-05-06 22:25 | 19.81255 | 109.57910 | 37886 ft | 486 kts | 234° |
| 2026-05-06 22:26 | 19.77040 | 109.52342 | 37886 ft | 486 kts | 234° |
| 2026-05-06 22:26 | 19.72794 | 109.46739 | 37882 ft | 486 kts | 234° |
| 2026-05-06 22:27 | 19.68545 | 109.41138 | 37887 ft | 486 kts | 233° |
| 2026-05-06 22:27 | 19.64316 | 109.35569 | 37886 ft | 486 kts | 233° |
| 2026-05-06 22:28 | 19.60783 | 109.30921 | 37885 ft | 486 kts | 233° |
| 2026-05-06 22:28 | 19.55834 | 109.24414 | 37883 ft | 486 kts | 233° |
| 2026-05-06 22:29 | 19.52298 | 109.19769 | 37885 ft | 486 kts | 233° |
| 2026-05-06 22:29 | 19.48024 | 109.14200 | 37882 ft | 486 kts | 233° |
| 2026-05-06 22:30 | 19.43731 | 109.08639 | 37884 ft | 486 kts | 233° |
| 2026-05-06 22:30 | 19.39479 | 109.03135 | 37885 ft | 485 kts | 233° |
| 2026-05-06 22:31 | 19.35197 | 108.97593 | 37880 ft | 485 kts | 233° |
| 2026-05-06 22:31 | 19.30922 | 108.92062 | 37883 ft | 485 kts | 233° |
| 2026-05-06 22:32 | 19.26639 | 108.86528 | 37886 ft | 485 kts | 233° |
| 2026-05-06 22:32 | 19.22377 | 108.81031 | 37880 ft | 485 kts | 233° |
| 2026-05-06 22:33 | 19.18090 | 108.75496 | 37880 ft | 485 kts | 233° |
| 2026-05-06 22:33 | 19.13845 | 108.70018 | 37873 ft | 484 kts | 233° |
| 2026-05-06 22:34 | 19.09571 | 108.64511 | 37875 ft | 484 kts | 233° |
| 2026-05-06 22:34 | 19.05283 | 108.58992 | 37877 ft | 485 kts | 233° |
| 2026-05-06 22:35 | 19.01019 | 108.53510 | 37874 ft | 485 kts | 233° |
| 2026-05-06 22:35 | 18.96729 | 108.47997 | 37876 ft | 485 kts | 233° |
| 2026-05-06 22:36 | 18.92437 | 108.42489 | 37871 ft | 485 kts | 232° |
| 2026-05-06 22:36 | 18.88179 | 108.37028 | 37872 ft | 484 kts | 232° |
| 2026-05-06 22:37 | 18.83886 | 108.31528 | 37877 ft | 484 kts | 232° |
| 2026-05-06 22:37 | 18.79620 | 108.26066 | 37874 ft | 484 kts | 232° |
| 2026-05-06 22:38 | 18.75329 | 108.20579 | 37875 ft | 484 kts | 232° |
| 2026-05-06 22:38 | 18.71035 | 108.15092 | 37874 ft | 484 kts | 232° |
| 2026-05-06 22:39 | 18.66739 | 108.09607 | 37877 ft | 484 kts | 232° |
| 2026-05-06 22:39 | 18.62452 | 108.04138 | 37877 ft | 484 kts | 232° |
| 2026-05-06 22:40 | 18.58178 | 107.98692 | 37881 ft | 484 kts | 232° |
| 2026-05-06 22:40 | 18.53873 | 107.93210 | 37875 ft | 484 kts | 232° |
| 2026-05-06 22:41 | 18.47448 | 107.85036 | 37869 ft | 484 kts | 232° |
| 2026-05-06 22:42 | 18.43131 | 107.79551 | 37869 ft | 484 kts | 232° |
| 2026-05-06 22:42 | 18.39039 | 107.73973 | 37870 ft | 482 kts | 240° |
| 2026-05-06 22:43 | 18.36391 | 107.67537 | 37871 ft | 478 kts | 257° |
| 2026-05-06 22:43 | 18.35829 | 107.60599 | 37874 ft | 476 kts | 275° |
| 2026-05-06 22:44 | 18.36925 | 107.53758 | 37866 ft | 477 kts | 282° |
| 2026-05-06 22:44 | 18.38329 | 107.46918 | 37873 ft | 477 kts | 282° |
| 2026-05-06 22:45 | 18.39742 | 107.40082 | 37870 ft | 477 kts | 282° |
| 2026-05-06 22:45 | 18.41111 | 107.33274 | 37876 ft | 477 kts | 282° |
| 2026-05-06 22:46 | 18.42465 | 107.26424 | 37868 ft | 476 kts | 282° |
| 2026-05-06 22:46 | 18.43812 | 107.19578 | 37869 ft | 477 kts | 282° |
| 2026-05-06 22:47 | 18.45151 | 107.12771 | 37866 ft | 476 kts | 281° |
| 2026-05-06 22:47 | 18.46494 | 107.05931 | 37868 ft | 477 kts | 281° |
| 2026-05-06 22:48 | 18.47832 | 106.99110 | 37867 ft | 478 kts | 281° |
| 2026-05-06 22:48 | 18.49171 | 106.92248 | 37867 ft | 478 kts | 281° |
| 2026-05-06 22:49 | 18.50510 | 106.85380 | 37868 ft | 478 kts | 281° |
| 2026-05-06 22:49 | 18.51839 | 106.78546 | 37863 ft | 478 kts | 281° |
| 2026-05-06 22:50 | 18.53175 | 106.71664 | 37868 ft | 478 kts | 281° |
| 2026-05-06 22:50 | 18.54509 | 106.64785 | 37864 ft | 479 kts | 281° |
| 2026-05-06 22:51 | 18.55833 | 106.57940 | 37863 ft | 480 kts | 281° |
| 2026-05-06 22:51 | 18.57182 | 106.51039 | 37863 ft | 480 kts | 281° |
| 2026-05-06 22:52 | 18.58539 | 106.44130 | 37860 ft | 480 kts | 281° |
| 2026-05-06 22:52 | 18.59890 | 106.37228 | 37859 ft | 480 kts | 281° |
| 2026-05-06 22:53 | 18.61228 | 106.30372 | 37860 ft | 479 kts | 281° |
| 2026-05-06 22:53 | 18.62569 | 106.23481 | 37860 ft | 479 kts | 281° |
| 2026-05-06 22:54 | 18.63906 | 106.16596 | 37860 ft | 479 kts | 281° |
| 2026-05-06 22:54 | 18.65235 | 106.09738 | 37863 ft | 479 kts | 281° |
| 2026-05-06 22:55 | 18.66566 | 106.02846 | 37866 ft | 479 kts | 281° |
| 2026-05-06 22:55 | 18.67870 | 105.96003 | 37858 ft | 477 kts | 281° |
| 2026-05-06 22:56 | 18.69176 | 105.89143 | 37860 ft | 476 kts | 281° |
| 2026-05-06 22:56 | 18.70483 | 105.82280 | 37863 ft | 476 kts | 281° |
| 2026-05-06 22:57 | 18.71781 | 105.75456 | 37857 ft | 476 kts | 281° |
| 2026-05-06 22:57 | 18.73102 | 105.68592 | 37854 ft | 476 kts | 283° |
| 2026-05-06 22:58 | 18.75090 | 105.61959 | 37864 ft | 477 kts | 288° |
| 2026-05-06 22:58 | 18.77332 | 105.55363 | 37861 ft | 476 kts | 289° |
| 2026-05-06 22:59 | 18.79612 | 105.48787 | 37868 ft | 476 kts | 289° |
| 2026-05-06 22:59 | 18.81867 | 105.42257 | 37870 ft | 475 kts | 289° |
| 2026-05-06 23:00 | 18.84124 | 105.35680 | 37883 ft | 475 kts | 289° |
| 2026-05-06 23:00 | 18.86064 | 105.30010 | 37891 ft | 474 kts | 289° |